Time;durP1;ratioP1;P1;durP2;ratioP2;P2;SDS_P1;SDS_P2;PMS_P1;PMS_P2;Temp;Humidity;BMP_temperature;BMP_pressure;BME280_temperature;BME280_humidity;BME280_pressure;Samples;Min_cycle;Max_cycle;Signal;HPM_P1;HPM_P2
2022/08/25 00:00:02;;;;;;;5.88;2.20;;;;;;;;;;5037877;28;20041;-69
2022/08/25 00:02:28;;;;;;;1.98;1.60;;;;;;;;;;5038919;28;20108;-69
2022/08/25 00:04:55;;;;;;;2.42;1.73;;;;;;;;;;5038646;28;20039;-69
2022/08/25 00:07:21;;;;;;;2.15;1.80;;;;;;;;;;5038659;28;20041;-69
2022/08/25 00:09:47;;;;;;;2.13;1.90;;;;;;;;;;5038353;28;20044;-69
2022/08/25 00:12:13;;;;;;;3.03;1.90;;;;;;;;;;5037803;28;20037;-69
2022/08/25 00:14:39;;;;;;;3.78;1.92;;;;;;;;;;5037916;28;20037;-69
2022/08/25 00:17:05;;;;;;;2.78;1.70;;;;;;;;;;5038274;28;20051;-69
2022/08/25 00:19:33;;;;;;;3.53;1.90;;;;;;;;;;5037843;28;20075;-69
2022/08/25 00:22:00;;;;;;;2.60;2.00;;;;;;;;;;5038131;28;20041;-69
2022/08/25 00:24:26;;;;;;;5.25;1.95;;;;;;;;;;5037320;28;20523;-69
2022/08/25 00:26:53;;;;;;;3.83;2.10;;;;;;;;;;5037627;28;20052;-69
2022/08/25 00:29:20;;;;;;;3.42;1.67;;;;;;;;;;5037698;28;20042;-69
2022/08/25 00:31:46;;;;;;;3.08;2.00;;;;;;;;;;5037910;28;20045;-69
2022/08/25 00:34:17;;;;;;;3.53;1.95;;;;;;;;;;5038070;28;20045;-69
2022/08/25 00:36:44;;;;;;;3.38;2.08;;;;;;;;;;5037905;28;20073;-69
2022/08/25 00:39:10;;;;;;;3.10;1.90;;;;;;;;;;5037541;28;20500;-69
2022/08/25 00:41:38;;;;;;;2.95;1.60;;;;;;;;;;5037512;28;20041;-69
2022/08/25 00:44:06;;;;;;;2.42;2.03;;;;;;;;;;5036975;28;20045;-69
2022/08/25 00:46:37;;;;;;;3.40;2.10;;;;;;;;;;5037632;28;20033;-69
2022/08/25 00:49:10;;;;;;;3.85;1.60;;;;;;;;;;5037522;28;20068;-69
2022/08/25 00:51:41;;;;;;;2.17;1.83;;;;;;;;;;5036716;28;20041;-69
2022/08/25 00:54:10;;;;;;;2.10;1.90;;;;;;;;;;5037250;28;20048;-69
2022/08/25 00:56:36;;;;;;;5.07;2.08;;;;;;;;;;5037514;28;20037;-69
2022/08/25 00:59:03;;;;;;;3.53;1.98;;;;;;;;;;5036539;28;20064;-69
2022/08/25 01:01:29;;;;;;;2.03;1.75;;;;;;;;;;5037435;28;20121;-69
2022/08/25 01:03:55;;;;;;;2.58;1.80;;;;;;;;;;5036535;28;20132;-69
2022/08/25 01:06:22;;;;;;;4.55;1.80;;;;;;;;;;5037052;28;20481;-69
2022/08/25 01:08:49;;;;;;;2.22;1.90;;;;;;;;;;5036719;28;20511;-69
2022/08/25 01:11:15;;;;;;;2.10;1.88;;;;;;;;;;5036940;28;20049;-69
2022/08/25 01:13:49;;;;;;;2.33;1.88;;;;;;;;;;5036366;28;20396;-69
2022/08/25 01:16:15;;;;;;;4.30;1.92;;;;;;;;;;5036679;28;20496;-69
2022/08/25 01:18:44;;;;;;;2.13;1.88;;;;;;;;;;5036920;28;20049;-69
2022/08/25 01:21:10;;;;;;;3.30;2.20;;;;;;;;;;5036465;28;20595;-69
2022/08/25 01:23:37;;;;;;;5.38;1.95;;;;;;;;;;5036584;28;20044;-69
2022/08/25 01:26:03;;;;;;;2.35;1.90;;;;;;;;;;5036582;28;20045;-69
2022/08/25 01:28:29;;;;;;;4.03;2.20;;;;;;;;;;5036720;28;20045;-69
2022/08/25 01:30:55;;;;;;;2.70;2.20;;;;;;;;;;5036858;28;20064;-69
2022/08/25 01:33:22;;;;;;;1.90;1.70;;;;;;;;;;5036811;28;20050;-69
2022/08/25 01:35:48;;;;;;;4.85;1.95;;;;;;;;;;5036529;28;20492;-69
2022/08/25 01:38:14;;;;;;;1.80;1.65;;;;;;;;;;5036156;28;20045;-69
2022/08/25 01:40:41;;;;;;;2.55;1.92;;;;;;;;;;5036863;28;20061;-69
2022/08/25 01:43:11;;;;;;;3.65;1.63;;;;;;;;;;5036507;28;20042;-69
2022/08/25 01:45:38;;;;;;;3.75;1.90;;;;;;;;;;5036783;28;20111;-69
2022/08/25 01:48:05;;;;;;;3.90;2.20;;;;;;;;;;5035989;28;20058;-69
2022/08/25 01:50:31;;;;;;;3.60;2.10;;;;;;;;;;5036546;28;20037;-69
2022/08/25 01:53:08;;;;;;;4.25;1.92;;;;;;;;;;5036139;28;20195;-69
2022/08/25 01:55:50;;;;;;;2.67;1.88;;;;;;;;;;5036149;28;20103;-69
2022/08/25 01:58:20;;;;;;;2.72;1.83;;;;;;;;;;5035238;28;20061;-69
2022/08/25 02:00:49;;;;;;;3.50;1.88;;;;;;;;;;5035968;28;20030;-69
2022/08/25 02:03:17;;;;;;;2.30;1.92;;;;;;;;;;5035620;28;20129;-69
2022/08/25 02:05:43;;;;;;;4.03;2.10;;;;;;;;;;5035810;28;20041;-69
2022/08/25 02:08:10;;;;;;;3.08;1.63;;;;;;;;;;5035976;28;20047;-69
2022/08/25 02:10:36;;;;;;;4.63;1.95;;;;;;;;;;5035746;28;20033;-69
2022/08/25 02:13:03;;;;;;;2.47;1.67;;;;;;;;;;5035353;28;20041;-69
2022/08/25 02:15:29;;;;;;;2.13;1.92;;;;;;;;;;5034813;28;20125;-69
2022/08/25 02:17:56;;;;;;;2.08;1.80;;;;;;;;;;5036013;28;20045;-69
2022/08/25 02:20:22;;;;;;;2.80;1.65;;;;;;;;;;5035265;28;20461;-69
2022/08/25 02:22:50;;;;;;;2.75;1.83;;;;;;;;;;5035235;28;20452;-69
2022/08/25 02:25:16;;;;;;;3.75;2.13;;;;;;;;;;5035528;28;20043;-69
2022/08/25 02:27:43;;;;;;;2.33;1.73;;;;;;;;;;5035568;28;20042;-69
2022/08/25 02:30:09;;;;;;;4.05;1.90;;;;;;;;;;5035451;28;20048;-69
2022/08/25 02:32:35;;;;;;;3.28;2.33;;;;;;;;;;5035400;28;20063;-69
2022/08/25 02:35:02;;;;;;;2.08;1.88;;;;;;;;;;5035013;28;20491;-69
2022/08/25 02:37:28;;;;;;;5.20;1.90;;;;;;;;;;5035940;28;20099;-69
2022/08/25 02:39:54;;;;;;;2.40;1.85;;;;;;;;;;5034917;28;20086;-69
2022/08/25 02:42:20;;;;;;;4.00;2.00;;;;;;;;;;5035390;28;20037;-69
2022/08/25 02:44:46;;;;;;;2.33;1.88;;;;;;;;;;5034832;28;20038;-69
2022/08/25 02:47:13;;;;;;;3.28;1.83;;;;;;;;;;5035209;28;20115;-69
2022/08/25 02:49:39;;;;;;;1.85;1.75;;;;;;;;;;5035032;28;20064;-69
2022/08/25 02:52:05;;;;;;;1.85;1.58;;;;;;;;;;5035105;28;20065;-69
2022/08/25 02:54:32;;;;;;;1.75;1.65;;;;;;;;;;5034644;28;20040;-69
2022/08/25 02:56:58;;;;;;;3.70;1.90;;;;;;;;;;5035371;28;20369;-69
2022/08/25 02:59:24;;;;;;;2.70;1.85;;;;;;;;;;5034364;28;20049;-69
2022/08/25 03:01:50;;;;;;;3.42;2.10;;;;;;;;;;5035189;28;20037;-69
2022/08/25 03:04:17;;;;;;;4.20;1.73;;;;;;;;;;5034836;28;20095;-69
2022/08/25 03:06:43;;;;;;;3.03;1.83;;;;;;;;;;5034883;28;20088;-69
2022/08/25 03:09:09;;;;;;;2.33;1.92;;;;;;;;;;5035041;28;20404;-69
2022/08/25 03:11:37;;;;;;;5.00;2.22;;;;;;;;;;5034792;28;20037;-69
2022/08/25 03:14:04;;;;;;;2.47;2.22;;;;;;;;;;5034489;28;20055;-69
2022/08/25 03:16:30;;;;;;;2.60;2.00;;;;;;;;;;5034434;28;20052;-69
2022/08/25 03:18:56;;;;;;;3.97;1.77;;;;;;;;;;5034743;28;20492;-69
2022/08/25 03:21:23;;;;;;;2.38;1.90;;;;;;;;;;5034288;28;20510;-69
2022/08/25 03:23:50;;;;;;;3.63;2.40;;;;;;;;;;5034620;28;20219;-69
2022/08/25 03:29:04;;;;;;;3.28;1.95;;;;;;;;;;5033962;28;20044;-69
2022/08/25 03:31:31;;;;;;;5.65;2.10;;;;;;;;;;5035084;28;20068;-69
2022/08/25 03:33:57;;;;;;;2.55;1.90;;;;;;;;;;5034440;28;20059;-69
2022/08/25 03:36:24;;;;;;;2.45;2.13;;;;;;;;;;5034480;28;20069;-69
2022/08/25 03:38:51;;;;;;;2.35;1.85;;;;;;;;;;5034528;28;20120;-69
2022/08/25 03:41:28;;;;;;;2.45;2.10;;;;;;;;;;5034618;28;20037;-69
2022/08/25 03:43:54;;;;;;;1.90;1.70;;;;;;;;;;5033576;28;20049;-69
2022/08/25 03:46:22;;;;;;;2.75;2.17;;;;;;;;;;5034352;28;20053;-69
2022/08/25 03:48:49;;;;;;;4.00;1.90;;;;;;;;;;5035179;28;20099;-69
2022/08/25 03:51:22;;;;;;;3.40;2.00;;;;;;;;;;5034892;28;20037;-69
2022/08/25 03:53:48;;;;;;;2.05;1.83;;;;;;;;;;5034532;28;20115;-69
2022/08/25 03:56:15;;;;;;;2.65;1.85;;;;;;;;;;5033991;28;20063;-69
2022/08/25 03:58:41;;;;;;;3.88;2.47;;;;;;;;;;5034302;28;20115;-69
2022/08/25 04:01:08;;;;;;;3.10;2.00;;;;;;;;;;5034565;28;20094;-69
2022/08/25 04:03:34;;;;;;;2.25;1.90;;;;;;;;;;5034383;28;20103;-69
2022/08/25 04:06:01;;;;;;;3.25;2.13;;;;;;;;;;5034506;28;20045;-69
2022/08/25 04:08:27;;;;;;;2.60;2.25;;;;;;;;;;5035068;28;20507;-69
2022/08/25 04:10:54;;;;;;;2.30;2.00;;;;;;;;;;5034478;28;20123;-69
2022/08/25 04:13:20;;;;;;;3.92;2.30;;;;;;;;;;5034176;28;20123;-69
2022/08/25 04:15:46;;;;;;;4.18;2.15;;;;;;;;;;5034406;28;20041;-69
2022/08/25 04:18:12;;;;;;;5.13;2.10;;;;;;;;;;5035203;28;20535;-69
2022/08/25 04:20:40;;;;;;;1.90;1.80;;;;;;;;;;5034074;28;20041;-69
2022/08/25 04:23:07;;;;;;;4.03;1.90;;;;;;;;;;5034183;28;20041;-69
2022/08/25 04:25:33;;;;;;;3.70;1.80;;;;;;;;;;5034611;28;20071;-69
2022/08/25 04:27:59;;;;;;;3.53;2.15;;;;;;;;;;5034513;28;20144;-69
2022/08/25 04:30:25;;;;;;;3.88;1.60;;;;;;;;;;5033997;28;20042;-69
2022/08/25 04:32:51;;;;;;;2.67;1.98;;;;;;;;;;5033938;28;20041;-69
2022/08/25 04:35:17;;;;;;;2.15;1.95;;;;;;;;;;5034280;28;20045;-69
2022/08/25 04:37:44;;;;;;;2.40;1.70;;;;;;;;;;5034766;28;20113;-69
2022/08/25 04:40:10;;;;;;;2.03;1.90;;;;;;;;;;5037806;28;20642;-69
2022/08/25 04:42:37;;;;;;;2.33;2.05;;;;;;;;;;5037495;28;20069;-69
2022/08/25 04:45:04;;;;;;;2.33;1.88;;;;;;;;;;5038258;28;20071;-69
2022/08/25 04:47:30;;;;;;;4.47;2.20;;;;;;;;;;5037371;28;20491;-69
2022/08/25 04:49:56;;;;;;;2.22;1.73;;;;;;;;;;5037670;28;20488;-69
2022/08/25 04:52:22;;;;;;;3.55;1.90;;;;;;;;;;5037336;28;20038;-69
2022/08/25 04:54:48;;;;;;;1.90;1.70;;;;;;;;;;5037599;28;20484;-69
2022/08/25 04:57:15;;;;;;;3.92;1.75;;;;;;;;;;5037434;28;20045;-70
2022/08/25 04:59:41;;;;;;;3.10;1.80;;;;;;;;;;5037610;28;20041;-69
2022/08/25 05:02:07;;;;;;;4.22;1.70;;;;;;;;;;5037706;28;20073;-69
2022/08/25 05:04:34;;;;;;;6.18;1.90;;;;;;;;;;5037338;28;20056;-69
2022/08/25 05:07:00;;;;;;;4.47;1.70;;;;;;;;;;5037428;28;20107;-69
2022/08/25 05:09:26;;;;;;;2.35;1.67;;;;;;;;;;5037331;28;20037;-69
2022/08/25 05:11:53;;;;;;;1.95;1.55;;;;;;;;;;5037599;28;20099;-69
2022/08/25 05:14:21;;;;;;;2.10;1.90;;;;;;;;;;5036831;28;20037;-69
2022/08/25 05:16:47;;;;;;;1.88;1.50;;;;;;;;;;5036303;28;20034;-69
2022/08/25 05:19:13;;;;;;;1.90;1.75;;;;;;;;;;5036842;28;20095;-69
2022/08/25 05:21:40;;;;;;;2.58;1.88;;;;;;;;;;5036883;28;20238;-69
2022/08/25 05:24:07;;;;;;;5.18;1.77;;;;;;;;;;5036877;28;20042;-69
2022/08/25 05:26:35;;;;;;;2.97;1.90;;;;;;;;;;5037449;28;20036;-69
2022/08/25 05:29:03;;;;;;;3.72;1.90;;;;;;;;;;5036117;28;20037;-69
2022/08/25 05:31:29;;;;;;;4.25;1.80;;;;;;;;;;5036207;28;20041;-69
2022/08/25 05:33:56;;;;;;;4.13;1.85;;;;;;;;;;5036491;28;20080;-69
2022/08/25 05:36:22;;;;;;;2.60;1.73;;;;;;;;;;5036761;28;20037;-69
2022/08/25 05:38:49;;;;;;;3.92;1.77;;;;;;;;;;5036537;28;20488;-69
2022/08/25 05:41:18;;;;;;;4.32;2.10;;;;;;;;;;5036170;28;20152;-69
2022/08/25 05:43:46;;;;;;;4.00;1.77;;;;;;;;;;5036224;28;20056;-69
2022/08/25 05:46:13;;;;;;;3.28;1.92;;;;;;;;;;5035969;28;20030;-69
2022/08/25 05:48:39;;;;;;;4.75;1.70;;;;;;;;;;5036351;28;20041;-69
2022/08/25 05:51:06;;;;;;;2.53;1.80;;;;;;;;;;5035398;28;20048;-69
2022/08/25 05:53:32;;;;;;;2.53;1.88;;;;;;;;;;5035897;28;20048;-69
2022/08/25 05:55:59;;;;;;;1.77;1.60;;;;;;;;;;5036165;28;20047;-69
2022/08/25 05:58:29;;;;;;;5.65;1.70;;;;;;;;;;5036325;28;20050;-69
2022/08/25 06:00:56;;;;;;;4.00;1.63;;;;;;;;;;5036094;28;20033;-69
2022/08/25 06:03:22;;;;;;;1.98;1.70;;;;;;;;;;5036499;28;20488;-69
2022/08/25 06:05:49;;;;;;;4.00;1.65;;;;;;;;;;5036261;28;20037;-69
2022/08/25 06:08:15;;;;;;;5.57;2.00;;;;;;;;;;5035904;28;20492;-69
2022/08/25 06:10:41;;;;;;;4.30;1.67;;;;;;;;;;5036432;28;20037;-69
2022/08/25 06:13:07;;;;;;;6.50;2.10;;;;;;;;;;5035682;28;20053;-69
2022/08/25 06:15:34;;;;;;;2.95;1.67;;;;;;;;;;5036065;28;20044;-69
2022/08/25 06:18:01;;;;;;;3.88;2.10;;;;;;;;;;5036646;28;20056;-69
2022/08/25 06:20:29;;;;;;;2.78;1.63;;;;;;;;;;5035622;28;20040;-69
2022/08/25 06:22:56;;;;;;;3.97;1.85;;;;;;;;;;5036663;28;20041;-69
2022/08/25 06:25:23;;;;;;;6.03;2.08;;;;;;;;;;5035803;28;20029;-69
2022/08/25 06:27:50;;;;;;;4.03;2.00;;;;;;;;;;5035743;28;20472;-69
2022/08/25 06:30:18;;;;;;;5.03;2.40;;;;;;;;;;5035846;28;20029;-69
2022/08/25 06:32:45;;;;;;;3.05;2.15;;;;;;;;;;5036108;28;20037;-69
2022/08/25 06:35:13;;;;;;;6.47;1.95;;;;;;;;;;5035605;28;20124;-69
2022/08/25 06:37:41;;;;;;;5.75;1.75;;;;;;;;;;5035402;28;20069;-69
2022/08/25 06:40:08;;;;;;;1.92;1.83;;;;;;;;;;5035532;28;20035;-69
2022/08/25 06:42:34;;;;;;;6.38;1.73;;;;;;;;;;5035052;28;20127;-69
2022/08/25 06:45:00;;;;;;;2.42;1.80;;;;;;;;;;5035465;28;20040;-69
2022/08/25 06:47:26;;;;;;;2.55;1.70;;;;;;;;;;5035386;28;20522;-69
2022/08/25 06:49:52;;;;;;;6.55;2.13;;;;;;;;;;5035424;28;20067;-69
2022/08/25 06:52:19;;;;;;;3.80;1.70;;;;;;;;;;5035305;28;20045;-69
2022/08/25 06:54:45;;;;;;;3.70;1.70;;;;;;;;;;5035310;28;20083;-69
2022/08/25 06:57:11;;;;;;;2.28;1.58;;;;;;;;;;5035648;28;20053;-70
2022/08/25 06:59:37;;;;;;;5.50;2.15;;;;;;;;;;5035558;28;20172;-69
2022/08/25 07:02:04;;;;;;;3.17;1.60;;;;;;;;;;5034547;28;20041;-69
2022/08/25 07:04:31;;;;;;;3.47;1.80;;;;;;;;;;5034758;28;20128;-69
2022/08/25 07:06:57;;;;;;;3.47;1.77;;;;;;;;;;5035170;28;20484;-69
2022/08/25 07:09:23;;;;;;;2.08;1.60;;;;;;;;;;5035047;28;20036;-69
2022/08/25 07:11:51;;;;;;;1.98;1.80;;;;;;;;;;5035661;28;20037;-69
2022/08/25 07:14:17;;;;;;;5.82;2.10;;;;;;;;;;5034714;28;20614;-69
2022/08/25 07:16:44;;;;;;;2.35;1.70;;;;;;;;;;5035275;28;20033;-69
2022/08/25 07:19:10;;;;;;;2.67;1.83;;;;;;;;;;5034893;28;20033;-69
2022/08/25 07:21:38;;;;;;;2.72;1.77;;;;;;;;;;5034973;28;20049;-69
2022/08/25 07:24:05;;;;;;;3.63;1.90;;;;;;;;;;5034842;28;20136;-69
2022/08/25 07:26:35;;;;;;;6.40;2.05;;;;;;;;;;5034907;28;20048;-69
2022/08/25 07:29:08;;;;;;;4.10;1.70;;;;;;;;;;5034417;28;20042;-69
2022/08/25 07:31:34;;;;;;;6.97;2.40;;;;;;;;;;5034486;28;20255;-69
2022/08/25 07:36:45;;;;;;;5.03;2.65;;;;;;;;;;5034848;28;20040;-69
2022/08/25 07:39:12;;;;;;;4.30;2.25;;;;;;;;;;5034704;28;20104;-69
2022/08/25 07:41:39;;;;;;;7.35;2.60;;;;;;;;;;5034698;28;20128;-69
2022/08/25 07:44:06;;;;;;;2.35;2.13;;;;;;;;;;5034753;28;20045;-69
2022/08/25 07:46:32;;;;;;;5.68;2.97;;;;;;;;;;5034397;28;20068;-69
2022/08/25 07:48:59;;;;;;;4.43;2.33;;;;;;;;;;5035478;28;20127;-69
2022/08/25 07:51:25;;;;;;;2.65;2.42;;;;;;;;;;5034240;28;20481;-69
2022/08/25 07:53:52;;;;;;;6.57;2.30;;;;;;;;;;5034498;28;20476;-69
2022/08/25 07:56:18;;;;;;;5.07;2.78;;;;;;;;;;5034516;28;20033;-69
2022/08/25 07:58:44;;;;;;;3.10;2.13;;;;;;;;;;5034528;28;20049;-69
2022/08/25 08:01:20;;;;;;;3.78;2.58;;;;;;;;;;5033849;28;20085;-69
2022/08/25 08:03:46;;;;;;;4.63;2.83;;;;;;;;;;5034685;28;20041;-69
2022/08/25 08:06:14;;;;;;;4.90;2.90;;;;;;;;;;5034489;28;20045;-69
2022/08/25 08:08:44;;;;;;;4.25;2.60;;;;;;;;;;5034366;28;20079;-69
2022/08/25 08:11:16;;;;;;;4.30;2.85;;;;;;;;;;5033620;28;20049;-69
2022/08/25 08:13:42;;;;;;;4.85;2.50;;;;;;;;;;5036095;28;20048;-69
2022/08/25 08:16:10;;;;;;;5.70;2.63;;;;;;;;;;5038358;28;20399;-69
2022/08/25 08:18:36;;;;;;;7.35;2.67;;;;;;;;;;5037928;28;20041;-69
2022/08/25 08:21:02;;;;;;;6.10;2.78;;;;;;;;;;5037979;28;20048;-69
2022/08/25 08:23:29;;;;;;;7.68;2.88;;;;;;;;;;5037434;28;20362;-69
2022/08/25 08:25:55;;;;;;;3.97;2.83;;;;;;;;;;5037786;28;20056;-69
2022/08/25 08:28:26;;;;;;;3.20;2.90;;;;;;;;;;5037983;28;20041;-69
2022/08/25 08:30:52;;;;;;;5.68;2.50;;;;;;;;;;5037857;28;20037;-69
2022/08/25 08:33:18;;;;;;;5.03;2.88;;;;;;;;;;5037935;28;20084;-69
2022/08/25 08:35:44;;;;;;;9.48;2.63;;;;;;;;;;5037680;28;20129;-69
2022/08/25 08:38:11;;;;;;;5.05;2.38;;;;;;;;;;5037419;28;20136;-69
2022/08/25 08:42:15;;;;;;;3.97;2.90;;;;;;;;;;5037860;28;20099;-69
2022/08/25 08:43:30;;;;;;;7.68;2.80;;;;;;;;;;5036839;28;20045;-69
2022/08/25 08:45:56;;;;;;;6.43;3.38;;;;;;;;;;5037112;28;20037;-69
2022/08/25 08:48:49;;;;;;;5.13;2.92;;;;;;;;;;5037409;28;20033;-69
2022/08/25 08:51:24;;;;;;;5.43;2.97;;;;;;;;;;5034579;28;20061;-69
2022/08/25 08:54:13;;;;;;;3.88;2.67;;;;;;;;;;5036979;28;20443;-69
2022/08/25 08:56:43;;;;;;;8.20;3.15;;;;;;;;;;5037874;28;20044;-69
2022/08/25 08:59:12;;;;;;;3.78;2.80;;;;;;;;;;5037506;28;20088;-69
2022/08/25 09:01:49;;;;;;;4.05;2.67;;;;;;;;;;5037365;28;20034;-69
2022/08/25 09:04:15;;;;;;;3.55;2.53;;;;;;;;;;5037685;28;20045;-69
2022/08/25 09:06:43;;;;;;;4.82;3.33;;;;;;;;;;5037110;28;20399;-69
2022/08/25 09:09:11;;;;;;;3.90;2.60;;;;;;;;;;5037358;28;20051;-69
2022/08/25 09:11:53;;;;;;;3.60;2.58;;;;;;;;;;5037341;28;20056;-69
2022/08/25 09:14:38;;;;;;;3.80;2.63;;;;;;;;;;5036898;28;20511;-69
2022/08/25 09:17:23;;;;;;;4.93;3.03;;;;;;;;;;5037728;28;20064;-69
2022/08/25 09:20:01;;;;;;;3.42;2.65;;;;;;;;;;5037194;28;20554;-69
2022/08/25 09:22:47;;;;;;;3.97;2.70;;;;;;;;;;5036932;28;20128;-69
2022/08/25 09:25:14;;;;;;;3.58;2.60;;;;;;;;;;5036890;28;20059;-69
2022/08/25 09:27:59;;;;;;;3.22;2.20;;;;;;;;;;5037268;28;20053;-69
2022/08/25 09:30:25;;;;;;;4.45;2.80;;;;;;;;;;5036594;28;20069;-69
2022/08/25 09:33:03;;;;;;;2.83;2.38;;;;;;;;;;5036562;28;20037;-69
2022/08/25 09:35:33;;;;;;;5.45;2.47;;;;;;;;;;5036513;28;20041;-69
2022/08/25 09:38:00;;;;;;;7.05;2.78;;;;;;;;;;5037107;28;20116;-69
2022/08/25 09:40:31;;;;;;;3.63;2.92;;;;;;;;;;5036485;28;20041;-69
2022/08/25 09:42:59;;;;;;;5.43;2.97;;;;;;;;;;5036439;28;20046;-69
2022/08/25 09:45:46;;;;;;;6.15;2.60;;;;;;;;;;5036571;28;20038;-69
2022/08/25 09:48:22;;;;;;;7.07;3.03;;;;;;;;;;5036654;28;20045;-69
2022/08/25 09:50:49;;;;;;;5.25;2.83;;;;;;;;;;5036575;28;20095;-69
2022/08/25 09:53:16;;;;;;;5.00;2.30;;;;;;;;;;5036157;28;20038;-69
2022/08/25 09:55:44;;;;;;;7.25;2.60;;;;;;;;;;5036751;28;20481;-69
2022/08/25 09:58:16;;;;;;;3.38;2.42;;;;;;;;;;5036391;28;20180;-69
2022/08/25 10:00:43;;;;;;;5.88;2.80;;;;;;;;;;5036273;28;20064;-69
2022/08/25 10:03:17;;;;;;;6.40;2.60;;;;;;;;;;5036282;28;20049;-69
2022/08/25 10:06:02;;;;;;;5.35;2.53;;;;;;;;;;5036328;28;20096;-69
2022/08/25 10:08:33;;;;;;;3.15;2.42;;;;;;;;;;5036891;28;20033;-69
2022/08/25 10:11:01;;;;;;;5.68;2.90;;;;;;;;;;5036114;28;20033;-69
2022/08/25 10:13:35;;;;;;;7.50;2.90;;;;;;;;;;5035736;28;20045;-69
2022/08/25 10:16:05;;;;;;;3.42;2.30;;;;;;;;;;5036659;28;20037;-69
2022/08/25 10:18:32;;;;;;;4.20;2.60;;;;;;;;;;5036675;28;20045;-69
2022/08/25 10:21:04;;;;;;;6.03;2.47;;;;;;;;;;5036007;28;20042;-69
2022/08/25 10:23:32;;;;;;;4.97;2.20;;;;;;;;;;5035822;28;20091;-69
2022/08/25 10:26:02;;;;;;;7.57;2.60;;;;;;;;;;5036202;28;20092;-69
2022/08/25 10:28:41;;;;;;;7.45;3.08;;;;;;;;;;5035714;28;20108;-69
2022/08/25 10:31:26;;;;;;;3.97;2.65;;;;;;;;;;5036161;28;20049;-69
2022/08/25 10:34:02;;;;;;;4.47;2.28;;;;;;;;;;5036040;28;20099;-69
2022/08/25 10:36:49;;;;;;;5.20;2.72;;;;;;;;;;5035585;28;20040;-69
2022/08/25 10:39:31;;;;;;;6.15;2.50;;;;;;;;;;5036014;28;20047;-69
2022/08/25 10:42:03;;;;;;;4.30;2.55;;;;;;;;;;5035772;28;20104;-69
2022/08/25 10:47:13;;;;;;;5.45;2.72;;;;;;;;;;5034992;28;20080;-69
2022/08/25 10:49:53;;;;;;;5.60;2.40;;;;;;;;;;5036017;28;20065;-69
2022/08/25 10:52:45;;;;;;;8.32;2.60;;;;;;;;;;5035783;28;20056;-69
2022/08/25 10:55:17;;;;;;;6.28;2.55;;;;;;;;;;5032253;28;20549;-69
2022/08/25 10:57:46;;;;;;;4.35;2.63;;;;;;;;;;5035062;28;20050;-69
2022/08/25 11:00:21;;;;;;;8.88;2.88;;;;;;;;;;5035000;28;20037;-69
2022/08/25 11:02:54;;;;;;;3.78;2.30;;;;;;;;;;5035105;28;20042;-69
2022/08/25 11:05:23;;;;;;;4.90;2.42;;;;;;;;;;5035501;28;20127;-69
2022/08/25 11:07:51;;;;;;;5.80;2.42;;;;;;;;;;5035226;28;20124;-69
2022/08/25 11:10:20;;;;;;;6.55;2.92;;;;;;;;;;5034837;28;20121;-69
2022/08/25 11:12:52;;;;;;;7.32;2.30;;;;;;;;;;5034592;28;20041;-69
2022/08/25 11:15:19;;;;;;;5.30;2.53;;;;;;;;;;5035113;28;20091;-69
2022/08/25 11:17:48;;;;;;;2.53;2.30;;;;;;;;;;5034418;28;20037;-69
2022/08/25 11:20:16;;;;;;;3.63;2.72;;;;;;;;;;5035144;28;20029;-69
2022/08/25 11:22:49;;;;;;;5.35;2.53;;;;;;;;;;5035052;28;20037;-69
2022/08/25 11:25:19;;;;;;;7.88;2.25;;;;;;;;;;5034991;28;20041;-69
2022/08/25 11:28:01;;;;;;;5.68;2.33;;;;;;;;;;5035056;28;20045;-69
2022/08/25 11:30:28;;;;;;;5.75;1.98;;;;;;;;;;5034313;28;20530;-69
2022/08/25 11:32:55;;;;;;;4.03;2.30;;;;;;;;;;5034546;28;20037;-69
2022/08/25 11:35:38;;;;;;;2.63;2.20;;;;;;;;;;5034971;28;20033;-69
2022/08/25 11:38:13;;;;;;;3.03;2.05;;;;;;;;;;5035022;28;20068;-69
2022/08/25 11:40:43;;;;;;;2.83;2.22;;;;;;;;;;5035052;28;20061;-69
2022/08/25 11:43:28;;;;;;;7.25;2.60;;;;;;;;;;5034144;28;20556;-69
2022/08/25 11:46:00;;;;;;;5.80;2.15;;;;;;;;;;5034024;28;20124;-69
2022/08/25 11:48:43;;;;;;;3.88;2.30;;;;;;;;;;5038599;28;20041;-69
2022/08/25 11:51:11;;;;;;;5.68;2.35;;;;;;;;;;5039113;28;20041;-69
2022/08/25 11:53:39;;;;;;;5.68;2.25;;;;;;;;;;5038195;28;20045;-69
2022/08/25 11:56:07;;;;;;;3.90;2.25;;;;;;;;;;5038745;28;20064;-69
2022/08/25 11:58:33;;;;;;;4.68;2.20;;;;;;;;;;5038373;28;20061;-69
2022/08/25 12:01:04;;;;;;;2.55;1.77;;;;;;;;;;5038732;28;20033;-70
2022/08/25 12:03:32;;;;;;;6.72;2.35;;;;;;;;;;5038453;28;20076;-69
2022/08/25 12:06:35;;;;;;;4.05;1.98;;;;;;;;;;5039098;28;20487;-69
2022/08/25 12:09:04;;;;;;;4.70;2.33;;;;;;;;;;4977191;28;20063;-69
2022/08/25 12:11:36;;;;;;;3.95;1.95;;;;;;;;;;5027515;28;20472;-69
2022/08/25 12:14:15;;;;;;;2.90;2.08;;;;;;;;;;5038495;28;20033;-69
2022/08/25 12:16:43;;;;;;;2.67;1.60;;;;;;;;;;5038263;28;20059;-69
2022/08/25 12:19:29;;;;;;;2.38;1.73;;;;;;;;;;5038230;28;20033;-69
2022/08/25 12:21:57;;;;;;;2.00;1.70;;;;;;;;;;5038602;28;20072;-69
2022/08/25 12:24:41;;;;;;;4.25;2.33;;;;;;;;;;5037817;28;20488;-69
2022/08/25 12:27:19;;;;;;;3.78;1.90;;;;;;;;;;5038294;28;20095;-69
2022/08/25 12:29:49;;;;;;;2.70;1.98;;;;;;;;;;5038452;28;20465;-69
2022/08/25 12:32:40;;;;;;;4.85;1.92;;;;;;;;;;5038101;28;20388;-69
2022/08/25 12:35:25;;;;;;;3.78;1.88;;;;;;;;;;5037979;28;20063;-69
2022/08/25 12:37:54;;;;;;;2.92;1.80;;;;;;;;;;5038056;28;20132;-69
2022/08/25 12:40:52;;;;;;;2.10;1.73;;;;;;;;;;5037784;28;20491;-69
2022/08/25 12:43:32;;;;;;;4.30;2.00;;;;;;;;;;5004196;28;20053;-69
2022/08/25 12:46:17;;;;;;;4.80;2.38;;;;;;;;;;5037494;28;20064;-69
2022/08/25 12:48:53;;;;;;;4.32;1.73;;;;;;;;;;5020251;28;20487;-69
2022/08/25 12:51:20;;;;;;;4.25;2.25;;;;;;;;;;5038453;28;20060;-69
2022/08/25 12:53:49;;;;;;;3.53;2.15;;;;;;;;;;5037765;28;20488;-69
2022/08/25 12:56:20;;;;;;;3.33;1.88;;;;;;;;;;5037534;28;20045;-69
2022/08/25 12:58:49;;;;;;;6.15;2.10;;;;;;;;;;5036595;28;20492;-69
2022/08/25 13:01:30;;;;;;;5.63;2.22;;;;;;;;;;5036828;28;20040;-69
2022/08/25 13:04:12;;;;;;;4.78;2.05;;;;;;;;;;5037423;28;20053;-69
2022/08/25 13:06:41;;;;;;;3.95;2.00;;;;;;;;;;5037358;28;20037;-69
2022/08/25 13:09:07;;;;;;;6.05;2.20;;;;;;;;;;5037090;28;20052;-69
2022/08/25 13:11:37;;;;;;;5.57;2.10;;;;;;;;;;5037271;28;20033;-69
2022/08/25 13:14:19;;;;;;;5.10;1.80;;;;;;;;;;5036727;28;20056;-69
2022/08/25 13:16:55;;;;;;;4.18;1.90;;;;;;;;;;5037064;28;20046;-69
2022/08/25 13:19:21;;;;;;;3.55;2.15;;;;;;;;;;5037180;28;20045;-69
2022/08/25 13:21:48;;;;;;;2.55;1.67;;;;;;;;;;5036585;28;20052;-69
2022/08/25 13:24:19;;;;;;;2.08;1.70;;;;;;;;;;5036327;28;20042;-69
2022/08/25 13:26:46;;;;;;;3.67;2.20;;;;;;;;;;5037343;28;20083;-69
2022/08/25 13:29:15;;;;;;;4.55;1.65;;;;;;;;;;5036620;28;20083;-69
2022/08/25 13:32:10;;;;;;;2.35;1.60;;;;;;;;;;5036569;28;20083;-69
2022/08/25 13:34:38;;;;;;;3.13;1.92;;;;;;;;;;5023468;28;20523;-69
2022/08/25 13:37:28;;;;;;;3.92;1.65;;;;;;;;;;5036898;28;20046;-69
2022/08/25 13:40:08;;;;;;;6.72;1.60;;;;;;;;;;5036916;28;20037;-69
2022/08/25 13:42:35;;;;;;;2.30;1.67;;;;;;;;;;5036247;28;20044;-69
2022/08/25 13:45:03;;;;;;;3.30;1.40;;;;;;;;;;5037176;28;20045;-69
2022/08/25 13:47:34;;;;;;;2.55;1.70;;;;;;;;;;5035802;28;20479;-69
2022/08/25 13:50:18;;;;;;;3.47;1.88;;;;;;;;;;5036245;28;20045;-69
2022/08/25 13:52:48;;;;;;;2.30;1.40;;;;;;;;;;5036232;28;20038;-69
2022/08/25 13:55:20;;;;;;;2.38;1.30;;;;;;;;;;5036193;28;20057;-69
2022/08/25 13:57:47;;;;;;;4.10;1.45;;;;;;;;;;5035309;28;20049;-69
2022/08/25 14:00:13;;;;;;;3.65;1.33;;;;;;;;;;5036153;28;20033;-69
2022/08/25 14:02:42;;;;;;;3.15;1.25;;;;;;;;;;5035708;28;20033;-69
2022/08/25 14:05:09;;;;;;;4.55;1.40;;;;;;;;;;5036052;28;20033;-69
2022/08/25 14:07:35;;;;;;;3.10;1.40;;;;;;;;;;5035733;28;20045;-69
2022/08/25 14:10:01;;;;;;;4.43;1.33;;;;;;;;;;5035011;28;20046;-69
2022/08/25 14:12:38;;;;;;;3.67;1.45;;;;;;;;;;5035371;28;20399;-69
2022/08/25 14:15:16;;;;;;;2.47;1.33;;;;;;;;;;5035892;28;20048;-69
2022/08/25 14:17:47;;;;;;;1.88;1.45;;;;;;;;;;5036129;28;20041;-69
2022/08/25 14:20:16;;;;;;;1.30;1.20;;;;;;;;;;5035772;28;20033;-69
2022/08/25 14:22:42;;;;;;;1.65;1.30;;;;;;;;;;5035535;28;20037;-69
2022/08/25 14:25:08;;;;;;;1.92;1.30;;;;;;;;;;5035662;28;20052;-69
2022/08/25 14:27:35;;;;;;;2.17;1.20;;;;;;;;;;5035780;28;20049;-69
2022/08/25 14:30:01;;;;;;;3.40;1.55;;;;;;;;;;5035210;28;20492;-69
2022/08/25 14:32:28;;;;;;;1.98;1.23;;;;;;;;;;5035443;28;20037;-69
2022/08/25 14:34:54;;;;;;;3.65;1.45;;;;;;;;;;5035334;28;20037;-69
2022/08/25 14:37:20;;;;;;;3.28;1.20;;;;;;;;;;5035753;28;20045;-69
2022/08/25 14:39:46;;;;;;;2.45;1.60;;;;;;;;;;5035443;28;20119;-69
2022/08/25 14:42:12;;;;;;;3.25;1.58;;;;;;;;;;5034847;28;20033;-69
2022/08/25 14:44:39;;;;;;;1.45;1.10;;;;;;;;;;5034778;28;20373;-69
2022/08/25 14:47:06;;;;;;;2.13;1.25;;;;;;;;;;5034957;28;20103;-69
2022/08/25 14:49:34;;;;;;;2.70;1.20;;;;;;;;;;5035191;28;20069;-69
2022/08/25 14:52:08;;;;;;;4.70;1.30;;;;;;;;;;5034893;28;20045;-69
2022/08/25 14:54:35;;;;;;;2.85;1.48;;;;;;;;;;5035605;28;20080;-69
2022/08/25 14:57:01;;;;;;;4.15;1.48;;;;;;;;;;5034311;28;20041;-69
2022/08/25 14:59:27;;;;;;;5.60;2.00;;;;;;;;;;5034883;28;20061;-69
2022/08/25 15:01:54;;;;;;;3.05;1.40;;;;;;;;;;5034651;28;20041;-69
2022/08/25 15:04:22;;;;;;;1.65;1.00;;;;;;;;;;5035437;28;20041;-69